sensor_id;sensor_type;location;lat;lon;timestamp;temperature;humidity
36652;DHT22;53334;51.976;20.144;2023-02-11T00:00:22;25.60;42.40
36652;DHT22;53334;51.976;20.144;2023-02-11T00:02:56;25.70;42.40
36652;DHT22;53334;51.976;20.144;2023-02-11T00:05:30;25.70;42.50
36652;DHT22;53334;51.976;20.144;2023-02-11T00:08:03;25.70;42.40
36652;DHT22;53334;51.976;20.144;2023-02-11T00:10:36;25.70;42.40
36652;DHT22;53334;51.976;20.144;2023-02-11T00:13:09;25.70;42.40
36652;DHT22;53334;51.976;20.144;2023-02-11T00:15:42;25.70;42.40
36652;DHT22;53334;51.976;20.144;2023-02-11T00:18:17;25.70;42.40
36652;DHT22;53334;51.976;20.144;2023-02-11T00:20:50;25.70;42.40
36652;DHT22;53334;51.976;20.144;2023-02-11T00:23:23;25.70;42.40
36652;DHT22;53334;51.976;20.144;2023-02-11T00:25:56;25.70;42.30
36652;DHT22;53334;51.976;20.144;2023-02-11T00:28:29;25.70;42.30
36652;DHT22;53334;51.976;20.144;2023-02-11T00:31:02;25.70;42.30
36652;DHT22;53334;51.976;20.144;2023-02-11T00:33:37;25.70;42.20
36652;DHT22;53334;51.976;20.144;2023-02-11T00:36:11;25.70;42.10
36652;DHT22;53334;51.976;20.144;2023-02-11T00:38:45;25.70;42.30
36652;DHT22;53334;51.976;20.144;2023-02-11T00:41:19;25.70;42.20
36652;DHT22;53334;51.976;20.144;2023-02-11T00:43:52;25.70;42.30
36652;DHT22;53334;51.976;20.144;2023-02-11T00:46:26;25.70;42.20
36652;DHT22;53334;51.976;20.144;2023-02-11T00:49:00;25.70;42.10
36652;DHT22;53334;51.976;20.144;2023-02-11T00:51:33;25.70;42.10
36652;DHT22;53334;51.976;20.144;2023-02-11T00:54:07;25.70;42.10
36652;DHT22;53334;51.976;20.144;2023-02-11T00:56:41;25.70;42.10
36652;DHT22;53334;51.976;20.144;2023-02-11T00:59:14;25.70;42.00
36652;DHT22;53334;51.976;20.144;2023-02-11T01:01:48;25.70;41.90
36652;DHT22;53334;51.976;20.144;2023-02-11T01:04:22;25.70;42.00
36652;DHT22;53334;51.976;20.144;2023-02-11T01:06:56;25.70;42.20
36652;DHT22;53334;51.976;20.144;2023-02-11T01:09:29;25.70;42.10
36652;DHT22;53334;51.976;20.144;2023-02-11T01:12:02;25.70;42.10
36652;DHT22;53334;51.976;20.144;2023-02-11T01:14:36;25.70;42.00
36652;DHT22;53334;51.976;20.144;2023-02-11T01:17:09;25.70;42.00
36652;DHT22;53334;51.976;20.144;2023-02-11T01:19:43;25.70;42.00
36652;DHT22;53334;51.976;20.144;2023-02-11T01:22:16;25.70;41.90
36652;DHT22;53334;51.976;20.144;2023-02-11T01:24:51;25.70;41.90
36652;DHT22;53334;51.976;20.144;2023-02-11T01:27:24;25.70;41.80
36652;DHT22;53334;51.976;20.144;2023-02-11T01:29:57;25.70;41.80
36652;DHT22;53334;51.976;20.144;2023-02-11T01:32:30;25.70;41.80
36652;DHT22;53334;51.976;20.144;2023-02-11T01:35:05;25.70;41.80
36652;DHT22;53334;51.976;20.144;2023-02-11T01:37:39;25.70;41.80
36652;DHT22;53334;51.976;20.144;2023-02-11T01:40:13;25.70;41.80
36652;DHT22;53334;51.976;20.144;2023-02-11T01:42:46;25.70;41.80
36652;DHT22;53334;51.976;20.144;2023-02-11T01:48:14;25.70;41.90
36652;DHT22;53334;51.976;20.144;2023-02-11T01:50:49;25.70;41.80
36652;DHT22;53334;51.976;20.144;2023-02-11T01:53:24;25.70;41.90
36652;DHT22;53334;51.976;20.144;2023-02-11T01:56:15;25.70;41.90
36652;DHT22;53334;51.976;20.144;2023-02-11T01:59:10;25.70;42.00
36652;DHT22;53334;51.976;20.144;2023-02-11T02:01:45;25.70;42.00
36652;DHT22;53334;51.976;20.144;2023-02-11T02:04:20;25.70;42.10
36652;DHT22;53334;51.976;20.144;2023-02-11T02:07:02;25.70;42.00
36652;DHT22;53334;51.976;20.144;2023-02-11T02:09:40;25.70;41.90
36652;DHT22;53334;51.976;20.144;2023-02-11T02:12:15;25.70;41.80
36652;DHT22;53334;51.976;20.144;2023-02-11T02:14:48;25.70;41.90
36652;DHT22;53334;51.976;20.144;2023-02-11T02:17:24;25.70;41.70
36652;DHT22;53334;51.976;20.144;2023-02-11T02:20:09;25.70;42.00
36652;DHT22;53334;51.976;20.144;2023-02-11T02:25:51;25.70;42.00
36652;DHT22;53334;51.976;20.144;2023-02-11T02:31:29;25.70;42.00
36652;DHT22;53334;51.976;20.144;2023-02-11T02:34:10;25.70;42.10
36652;DHT22;53334;51.976;20.144;2023-02-11T02:36:46;25.70;42.00
36652;DHT22;53334;51.976;20.144;2023-02-11T02:39:22;25.70;42.00
36652;DHT22;53334;51.976;20.144;2023-02-11T02:41:57;25.70;42.00
36652;DHT22;53334;51.976;20.144;2023-02-11T02:44:30;25.70;41.90
36652;DHT22;53334;51.976;20.144;2023-02-11T02:47:03;25.70;41.90
36652;DHT22;53334;51.976;20.144;2023-02-11T02:49:37;25.70;41.80
36652;DHT22;53334;51.976;20.144;2023-02-11T02:52:14;25.70;41.90
36652;DHT22;53334;51.976;20.144;2023-02-11T02:57:55;25.70;41.70
36652;DHT22;53334;51.976;20.144;2023-02-11T03:00:35;25.70;41.70
36652;DHT22;53334;51.976;20.144;2023-02-11T03:03:14;25.70;41.60
36652;DHT22;53334;51.976;20.144;2023-02-11T03:05:52;25.70;41.60
36652;DHT22;53334;51.976;20.144;2023-02-11T03:08:28;25.70;41.50
36652;DHT22;53334;51.976;20.144;2023-02-11T03:11:03;25.70;41.50
36652;DHT22;53334;51.976;20.144;2023-02-11T03:13:38;25.70;41.50
36652;DHT22;53334;51.976;20.144;2023-02-11T03:16:12;25.70;41.50
36652;DHT22;53334;51.976;20.144;2023-02-11T03:18:47;25.70;41.50
36652;DHT22;53334;51.976;20.144;2023-02-11T03:21:23;25.70;41.40
36652;DHT22;53334;51.976;20.144;2023-02-11T03:23:56;25.70;41.40
36652;DHT22;53334;51.976;20.144;2023-02-11T03:26:33;25.70;41.50
36652;DHT22;53334;51.976;20.144;2023-02-11T03:29:09;25.70;41.50
36652;DHT22;53334;51.976;20.144;2023-02-11T03:31:50;25.70;41.60
36652;DHT22;53334;51.976;20.144;2023-02-11T03:34:26;25.70;41.40
36652;DHT22;53334;51.976;20.144;2023-02-11T03:37:04;25.70;41.50
36652;DHT22;53334;51.976;20.144;2023-02-11T03:39:40;25.70;41.60
36652;DHT22;53334;51.976;20.144;2023-02-11T03:42:14;25.70;41.60
36652;DHT22;53334;51.976;20.144;2023-02-11T03:44:49;25.60;41.60
36652;DHT22;53334;51.976;20.144;2023-02-11T03:47:24;25.70;41.60
36652;DHT22;53334;51.976;20.144;2023-02-11T03:49:59;25.60;41.50
36652;DHT22;53334;51.976;20.144;2023-02-11T03:52:35;25.60;41.50
36652;DHT22;53334;51.976;20.144;2023-02-11T03:55:10;25.60;41.50
36652;DHT22;53334;51.976;20.144;2023-02-11T03:57:45;25.60;41.50
36652;DHT22;53334;51.976;20.144;2023-02-11T04:00:18;25.60;41.40
36652;DHT22;53334;51.976;20.144;2023-02-11T04:02:51;25.60;41.40
36652;DHT22;53334;51.976;20.144;2023-02-11T04:05:24;25.60;41.30
36652;DHT22;53334;51.976;20.144;2023-02-11T04:07:59;25.50;41.30
36652;DHT22;53334;51.976;20.144;2023-02-11T04:10:32;25.60;41.20
36652;DHT22;53334;51.976;20.144;2023-02-11T04:13:05;25.50;41.20
36652;DHT22;53334;51.976;20.144;2023-02-11T04:15:38;25.50;41.30
36652;DHT22;53334;51.976;20.144;2023-02-11T04:18:11;25.50;41.20
36652;DHT22;53334;51.976;20.144;2023-02-11T04:20:44;25.50;41.20
36652;DHT22;53334;51.976;20.144;2023-02-11T04:23:19;25.50;41.40
36652;DHT22;53334;51.976;20.144;2023-02-11T04:25:52;25.50;41.70
36652;DHT22;53334;51.976;20.144;2023-02-11T04:28:25;25.50;41.80
36652;DHT22;53334;51.976;20.144;2023-02-11T04:31:00;25.50;41.90
36652;DHT22;53334;51.976;20.144;2023-02-11T04:33:33;25.50;41.90
36652;DHT22;53334;51.976;20.144;2023-02-11T04:36:06;25.50;41.90
36652;DHT22;53334;51.976;20.144;2023-02-11T04:38:41;25.50;41.90
36652;DHT22;53334;51.976;20.144;2023-02-11T04:41:14;25.50;41.90
36652;DHT22;53334;51.976;20.144;2023-02-11T04:43:47;25.50;41.90
36652;DHT22;53334;51.976;20.144;2023-02-11T04:46:20;25.50;41.90
36652;DHT22;53334;51.976;20.144;2023-02-11T04:48:53;25.50;42.00
36652;DHT22;53334;51.976;20.144;2023-02-11T04:51:26;25.50;42.00
36652;DHT22;53334;51.976;20.144;2023-02-11T04:54:01;25.50;42.10
36652;DHT22;53334;51.976;20.144;2023-02-11T04:56:36;25.50;42.10
36652;DHT22;53334;51.976;20.144;2023-02-11T04:59:09;25.50;42.10
36652;DHT22;53334;51.976;20.144;2023-02-11T05:01:44;25.50;42.20
36652;DHT22;53334;51.976;20.144;2023-02-11T05:04:17;25.50;42.20
36652;DHT22;53334;51.976;20.144;2023-02-11T05:06:50;25.50;42.20
36652;DHT22;53334;51.976;20.144;2023-02-11T05:09:24;25.50;42.20
36652;DHT22;53334;51.976;20.144;2023-02-11T05:11:57;25.50;42.10
36652;DHT22;53334;51.976;20.144;2023-02-11T05:14:30;25.50;42.10
36652;DHT22;53334;51.976;20.144;2023-02-11T05:17:04;25.50;42.10
36652;DHT22;53334;51.976;20.144;2023-02-11T05:19:37;25.50;42.70
36652;DHT22;53334;51.976;20.144;2023-02-11T05:22:10;25.50;42.10
36652;DHT22;53334;51.976;20.144;2023-02-11T05:24:44;25.50;42.10
36652;DHT22;53334;51.976;20.144;2023-02-11T05:27:18;25.50;42.10
36652;DHT22;53334;51.976;20.144;2023-02-11T05:29:51;25.50;42.10
36652;DHT22;53334;51.976;20.144;2023-02-11T05:32:24;25.50;42.10
36652;DHT22;53334;51.976;20.144;2023-02-11T05:34:57;25.50;42.10
36652;DHT22;53334;51.976;20.144;2023-02-11T05:37:30;25.50;42.10
36652;DHT22;53334;51.976;20.144;2023-02-11T05:40:05;25.50;42.10
36652;DHT22;53334;51.976;20.144;2023-02-11T05:42:39;25.50;42.10
36652;DHT22;53334;51.976;20.144;2023-02-11T05:45:12;25.50;42.10
36652;DHT22;53334;51.976;20.144;2023-02-11T05:47:45;25.50;42.10
36652;DHT22;53334;51.976;20.144;2023-02-11T05:50:18;25.40;42.00
36652;DHT22;53334;51.976;20.144;2023-02-11T05:52:56;25.50;42.10
36652;DHT22;53334;51.976;20.144;2023-02-11T05:55:30;25.50;42.10
36652;DHT22;53334;51.976;20.144;2023-02-11T05:58:04;25.40;42.00
36652;DHT22;53334;51.976;20.144;2023-02-11T06:00:38;25.50;42.10
36652;DHT22;53334;51.976;20.144;2023-02-11T06:03:11;25.50;42.10
36652;DHT22;53334;51.976;20.144;2023-02-11T06:05:44;25.50;42.10
36652;DHT22;53334;51.976;20.144;2023-02-11T06:08:18;25.50;42.10
36652;DHT22;53334;51.976;20.144;2023-02-11T06:10:52;25.40;42.00
36652;DHT22;53334;51.976;20.144;2023-02-11T06:13:25;25.50;42.10
36652;DHT22;53334;51.976;20.144;2023-02-11T06:15:59;25.50;42.10
36652;DHT22;53334;51.976;20.144;2023-02-11T06:18:33;25.50;42.10
36652;DHT22;53334;51.976;20.144;2023-02-11T06:21:06;25.50;42.10
36652;DHT22;53334;51.976;20.144;2023-02-11T06:23:39;25.50;42.20
36652;DHT22;53334;51.976;20.144;2023-02-11T06:26:17;25.50;42.20
36652;DHT22;53334;51.976;20.144;2023-02-11T06:28:50;25.50;42.20
36652;DHT22;53334;51.976;20.144;2023-02-11T06:31:23;25.40;42.10
36652;DHT22;53334;51.976;20.144;2023-02-11T06:33:56;25.40;42.10
36652;DHT22;53334;51.976;20.144;2023-02-11T06:36:30;25.50;42.20
36652;DHT22;53334;51.976;20.144;2023-02-11T06:39:03;25.50;42.20
36652;DHT22;53334;51.976;20.144;2023-02-11T06:41:37;25.50;42.30
36652;DHT22;53334;51.976;20.144;2023-02-11T06:44:10;25.50;42.30
36652;DHT22;53334;51.976;20.144;2023-02-11T06:46:43;25.40;42.20
36652;DHT22;53334;51.976;20.144;2023-02-11T06:49:17;25.40;42.10
36652;DHT22;53334;51.976;20.144;2023-02-11T06:51:50;25.40;42.10
36652;DHT22;53334;51.976;20.144;2023-02-11T06:54:23;25.40;42.10
36652;DHT22;53334;51.976;20.144;2023-02-11T06:56:57;25.50;42.10
36652;DHT22;53334;51.976;20.144;2023-02-11T06:59:30;25.40;42.00
36652;DHT22;53334;51.976;20.144;2023-02-11T07:02:04;25.50;42.00
36652;DHT22;53334;51.976;20.144;2023-02-11T07:04:37;25.40;41.90
36652;DHT22;53334;51.976;20.144;2023-02-11T07:07:10;25.40;41.90
36652;DHT22;53334;51.976;20.144;2023-02-11T07:09:43;25.40;41.80
36652;DHT22;53334;51.976;20.144;2023-02-11T07:12:18;25.40;41.80
36652;DHT22;53334;51.976;20.144;2023-02-11T07:14:51;25.40;41.70
36652;DHT22;53334;51.976;20.144;2023-02-11T07:17:24;25.40;41.80
36652;DHT22;53334;51.976;20.144;2023-02-11T07:19:57;25.40;41.80
36652;DHT22;53334;51.976;20.144;2023-02-11T07:22:30;25.50;41.90
36652;DHT22;53334;51.976;20.144;2023-02-11T07:25:05;25.40;41.90
36652;DHT22;53334;51.976;20.144;2023-02-11T07:27:40;25.40;41.80
36652;DHT22;53334;51.976;20.144;2023-02-11T07:30:13;25.40;41.80
36652;DHT22;53334;51.976;20.144;2023-02-11T07:32:46;25.40;42.20
36652;DHT22;53334;51.976;20.144;2023-02-11T07:35:19;25.40;42.40
36652;DHT22;53334;51.976;20.144;2023-02-11T07:37:53;25.50;42.60
36652;DHT22;53334;51.976;20.144;2023-02-11T07:40:26;25.40;42.80
36652;DHT22;53334;51.976;20.144;2023-02-11T07:43:00;25.50;43.00
36652;DHT22;53334;51.976;20.144;2023-02-11T07:45:33;25.40;42.70
36652;DHT22;53334;51.976;20.144;2023-02-11T07:48:10;25.50;42.70
36652;DHT22;53334;51.976;20.144;2023-02-11T07:50:43;25.50;42.90
36652;DHT22;53334;51.976;20.144;2023-02-11T07:53:16;25.40;42.90
36652;DHT22;53334;51.976;20.144;2023-02-11T07:55:49;25.40;42.80
36652;DHT22;53334;51.976;20.144;2023-02-11T07:58:24;25.40;42.90
36652;DHT22;53334;51.976;20.144;2023-02-11T08:00:59;25.50;42.90
36652;DHT22;53334;51.976;20.144;2023-02-11T08:03:33;25.40;42.90
36652;DHT22;53334;51.976;20.144;2023-02-11T08:06:07;25.40;42.90
36652;DHT22;53334;51.976;20.144;2023-02-11T08:08:41;25.50;43.10
36652;DHT22;53334;51.976;20.144;2023-02-11T08:11:15;25.40;43.00
36652;DHT22;53334;51.976;20.144;2023-02-11T08:13:50;25.50;43.20
36652;DHT22;53334;51.976;20.144;2023-02-11T08:16:25;25.50;43.20
36652;DHT22;53334;51.976;20.144;2023-02-11T08:19:00;25.50;43.30
36652;DHT22;53334;51.976;20.144;2023-02-11T08:21:34;25.50;43.40
36652;DHT22;53334;51.976;20.144;2023-02-11T08:24:07;25.50;43.40
36652;DHT22;53334;51.976;20.144;2023-02-11T08:26:40;25.50;43.40
36652;DHT22;53334;51.976;20.144;2023-02-11T08:29:15;25.50;43.40
36652;DHT22;53334;51.976;20.144;2023-02-11T08:31:49;25.50;43.60
36652;DHT22;53334;51.976;20.144;2023-02-11T08:34:22;25.50;43.80
36652;DHT22;53334;51.976;20.144;2023-02-11T08:36:55;25.50;44.00
36652;DHT22;53334;51.976;20.144;2023-02-11T08:39:28;25.50;44.20
36652;DHT22;53334;51.976;20.144;2023-02-11T08:42:01;25.50;44.20
36652;DHT22;53334;51.976;20.144;2023-02-11T08:44:36;25.50;44.10
36652;DHT22;53334;51.976;20.144;2023-02-11T08:47:09;25.50;44.10
36652;DHT22;53334;51.976;20.144;2023-02-11T08:49:42;25.50;43.90
36652;DHT22;53334;51.976;20.144;2023-02-11T08:52:15;25.50;43.60
36652;DHT22;53334;51.976;20.144;2023-02-11T08:54:48;25.50;43.20
36652;DHT22;53334;51.976;20.144;2023-02-11T08:57:21;25.50;43.00
36652;DHT22;53334;51.976;20.144;2023-02-11T08:59:56;25.50;42.80
36652;DHT22;53334;51.976;20.144;2023-02-11T09:02:29;25.50;37.00
36652;DHT22;53334;51.976;20.144;2023-02-11T09:05:02;25.40;32.10
36652;DHT22;53334;51.976;20.144;2023-02-11T09:07:35;25.20;35.20
36652;DHT22;53334;51.976;20.144;2023-02-11T09:10:08;25.20;37.30
36652;DHT22;53334;51.976;20.144;2023-02-11T09:12:42;25.20;38.00
36652;DHT22;53334;51.976;20.144;2023-02-11T09:15:16;25.20;38.30
36652;DHT22;53334;51.976;20.144;2023-02-11T09:17:49;25.10;38.30
36652;DHT22;53334;51.976;20.144;2023-02-11T09:20:23;25.10;38.70
36652;DHT22;53334;51.976;20.144;2023-02-11T09:22:57;25.10;38.50
36652;DHT22;53334;51.976;20.144;2023-02-11T09:25:30;25.10;38.50
36652;DHT22;53334;51.976;20.144;2023-02-11T09:28:03;25.10;38.60
36652;DHT22;53334;51.976;20.144;2023-02-11T09:30:38;25.10;38.70
36652;DHT22;53334;51.976;20.144;2023-02-11T09:33:11;25.10;38.60
36652;DHT22;53334;51.976;20.144;2023-02-11T09:35:44;25.20;38.10
36652;DHT22;53334;51.976;20.144;2023-02-11T09:38:17;25.10;37.90
36652;DHT22;53334;51.976;20.144;2023-02-11T09:40:50;25.20;38.20
36652;DHT22;53334;51.976;20.144;2023-02-11T09:43:25;25.20;38.30
36652;DHT22;53334;51.976;20.144;2023-02-11T09:46:00;25.20;39.30
36652;DHT22;53334;51.976;20.144;2023-02-11T09:48:35;25.20;39.60
36652;DHT22;53334;51.976;20.144;2023-02-11T09:51:13;25.30;40.10
36652;DHT22;53334;51.976;20.144;2023-02-11T09:53:49;25.30;40.10
36652;DHT22;53334;51.976;20.144;2023-02-11T09:56:23;25.30;40.90
36652;DHT22;53334;51.976;20.144;2023-02-11T09:58:56;25.30;40.50
36652;DHT22;53334;51.976;20.144;2023-02-11T10:01:33;25.30;40.70
36652;DHT22;53334;51.976;20.144;2023-02-11T10:04:11;25.30;41.70
36652;DHT22;53334;51.976;20.144;2023-02-11T10:06:47;25.40;42.20
36652;DHT22;53334;51.976;20.144;2023-02-11T10:09:24;25.40;42.20
36652;DHT22;53334;51.976;20.144;2023-02-11T10:12:10;25.40;42.40
36652;DHT22;53334;51.976;20.144;2023-02-11T10:14:49;25.40;42.50
36652;DHT22;53334;51.976;20.144;2023-02-11T10:17:26;25.40;42.60
36652;DHT22;53334;51.976;20.144;2023-02-11T10:20:13;25.40;42.70
36652;DHT22;53334;51.976;20.144;2023-02-11T10:22:49;25.40;42.80
36652;DHT22;53334;51.976;20.144;2023-02-11T10:25:23;25.50;42.80
36652;DHT22;53334;51.976;20.144;2023-02-11T10:27:56;25.50;42.90
36652;DHT22;53334;51.976;20.144;2023-02-11T10:30:32;25.50;43.20
36652;DHT22;53334;51.976;20.144;2023-02-11T10:33:10;25.40;44.30
36652;DHT22;53334;51.976;20.144;2023-02-11T10:35:45;25.50;43.50
36652;DHT22;53334;51.976;20.144;2023-02-11T10:38:18;25.50;43.80
36652;DHT22;53334;51.976;20.144;2023-02-11T10:40:51;25.50;44.40
36652;DHT22;53334;51.976;20.144;2023-02-11T10:43:25;25.50;44.70
36652;DHT22;53334;51.976;20.144;2023-02-11T10:45:59;25.50;44.40
36652;DHT22;53334;51.976;20.144;2023-02-11T10:48:36;25.50;44.00
36652;DHT22;53334;51.976;20.144;2023-02-11T10:51:17;25.50;44.00
36652;DHT22;53334;51.976;20.144;2023-02-11T10:54:07;25.50;43.90
36652;DHT22;53334;51.976;20.144;2023-02-11T10:56:45;25.50;43.90
36652;DHT22;53334;51.976;20.144;2023-02-11T10:59:23;25.50;43.70
36652;DHT22;53334;51.976;20.144;2023-02-11T11:01:59;25.50;43.70
36652;DHT22;53334;51.976;20.144;2023-02-11T11:04:36;25.50;43.60
36652;DHT22;53334;51.976;20.144;2023-02-11T11:07:11;25.50;43.60
36652;DHT22;53334;51.976;20.144;2023-02-11T11:09:51;25.50;43.40
36652;DHT22;53334;51.976;20.144;2023-02-11T11:12:27;25.60;43.50
36652;DHT22;53334;51.976;20.144;2023-02-11T11:15:02;25.50;43.20
36652;DHT22;53334;51.976;20.144;2023-02-11T11:17:36;25.50;43.30
36652;DHT22;53334;51.976;20.144;2023-02-11T11:20:15;25.50;43.20
36652;DHT22;53334;51.976;20.144;2023-02-11T11:22:51;25.50;43.30
36652;DHT22;53334;51.976;20.144;2023-02-11T11:25:25;25.50;43.40
36652;DHT22;53334;51.976;20.144;2023-02-11T11:27:59;25.60;43.30
36652;DHT22;53334;51.976;20.144;2023-02-11T11:30:33;25.60;43.50
36652;DHT22;53334;51.976;20.144;2023-02-11T11:33:14;25.60;43.60
36652;DHT22;53334;51.976;20.144;2023-02-11T11:35:59;25.60;43.60
36652;DHT22;53334;51.976;20.144;2023-02-11T11:38:33;25.60;43.70
36652;DHT22;53334;51.976;20.144;2023-02-11T11:41:22;25.60;43.60
36652;DHT22;53334;51.976;20.144;2023-02-11T11:43:56;25.60;44.20
36652;DHT22;53334;51.976;20.144;2023-02-11T11:46:31;25.70;43.70
36652;DHT22;53334;51.976;20.144;2023-02-11T11:49:08;25.60;43.60
36652;DHT22;53334;51.976;20.144;2023-02-11T11:51:44;25.70;43.70
36652;DHT22;53334;51.976;20.144;2023-02-11T11:54:18;25.70;43.60
36652;DHT22;53334;51.976;20.144;2023-02-11T11:56:52;25.70;43.50
36652;DHT22;53334;51.976;20.144;2023-02-11T11:59:27;25.70;43.40
36652;DHT22;53334;51.976;20.144;2023-02-11T12:02:06;25.60;43.20
36652;DHT22;53334;51.976;20.144;2023-02-11T12:07:37;25.70;43.30
36652;DHT22;53334;51.976;20.144;2023-02-11T12:10:21;25.70;43.50
36652;DHT22;53334;51.976;20.144;2023-02-11T12:12:59;25.70;43.50
36652;DHT22;53334;51.976;20.144;2023-02-11T12:15:35;25.70;43.80
36652;DHT22;53334;51.976;20.144;2023-02-11T12:18:15;25.70;44.40
36652;DHT22;53334;51.976;20.144;2023-02-11T12:20:54;25.70;44.00
36652;DHT22;53334;51.976;20.144;2023-02-11T12:23:35;25.70;44.00
36652;DHT22;53334;51.976;20.144;2023-02-11T12:26:11;25.70;44.00
36652;DHT22;53334;51.976;20.144;2023-02-11T12:28:51;25.70;44.00
36652;DHT22;53334;51.976;20.144;2023-02-11T12:31:27;25.70;44.00
36652;DHT22;53334;51.976;20.144;2023-02-11T12:34:15;25.80;44.10
36652;DHT22;53334;51.976;20.144;2023-02-11T12:36:58;25.80;44.30
36652;DHT22;53334;51.976;20.144;2023-02-11T12:39:38;25.70;44.00
36652;DHT22;53334;51.976;20.144;2023-02-11T12:42:20;25.70;44.20
36652;DHT22;53334;51.976;20.144;2023-02-11T12:45:16;25.70;44.50
36652;DHT22;53334;51.976;20.144;2023-02-11T12:47:56;25.70;44.50
36652;DHT22;53334;51.976;20.144;2023-02-11T12:50:33;25.70;44.50
36652;DHT22;53334;51.976;20.144;2023-02-11T12:53:13;25.70;44.40
36652;DHT22;53334;51.976;20.144;2023-02-11T12:55:53;25.70;44.30
36652;DHT22;53334;51.976;20.144;2023-02-11T12:58:29;25.70;44.30
36652;DHT22;53334;51.976;20.144;2023-02-11T13:01:17;25.70;44.20
36652;DHT22;53334;51.976;20.144;2023-02-11T13:03:52;25.70;44.00
36652;DHT22;53334;51.976;20.144;2023-02-11T13:06:27;25.70;44.10
36652;DHT22;53334;51.976;20.144;2023-02-11T13:09:02;25.70;44.20
36652;DHT22;53334;51.976;20.144;2023-02-11T13:11:38;25.70;44.00
36652;DHT22;53334;51.976;20.144;2023-02-11T13:14:14;25.70;44.30
36652;DHT22;53334;51.976;20.144;2023-02-11T13:16:48;25.70;44.40
36652;DHT22;53334;51.976;20.144;2023-02-11T13:19:23;25.70;44.30
36652;DHT22;53334;51.976;20.144;2023-02-11T13:22:02;25.70;44.10
36652;DHT22;53334;51.976;20.144;2023-02-11T13:24:40;25.70;44.70
36652;DHT22;53334;51.976;20.144;2023-02-11T13:30:17;25.70;44.70
36652;DHT22;53334;51.976;20.144;2023-02-11T13:33:04;25.80;44.70
36652;DHT22;53334;51.976;20.144;2023-02-11T13:35:38;25.70;44.80
36652;DHT22;53334;51.976;20.144;2023-02-11T13:38:17;25.80;44.70
36652;DHT22;53334;51.976;20.144;2023-02-11T13:40:58;25.80;44.60
36652;DHT22;53334;51.976;20.144;2023-02-11T13:43:32;25.80;44.70
36652;DHT22;53334;51.976;20.144;2023-02-11T13:46:07;25.80;44.60
36652;DHT22;53334;51.976;20.144;2023-02-11T13:48:44;25.80;44.50
36652;DHT22;53334;51.976;20.144;2023-02-11T13:51:33;25.80;44.40
36652;DHT22;53334;51.976;20.144;2023-02-11T13:54:07;25.80;44.40
36652;DHT22;53334;51.976;20.144;2023-02-11T13:59:44;25.80;44.10
36652;DHT22;53334;51.976;20.144;2023-02-11T14:02:23;25.80;44.60
36652;DHT22;53334;51.976;20.144;2023-02-11T14:05:21;25.80;44.80
36652;DHT22;53334;51.976;20.144;2023-02-11T14:08:17;25.80;44.70
36652;DHT22;53334;51.976;20.144;2023-02-11T14:14:02;25.80;44.90
36652;DHT22;53334;51.976;20.144;2023-02-11T14:19:39;25.80;45.00
36652;DHT22;53334;51.976;20.144;2023-02-11T14:22:15;25.80;44.90
36652;DHT22;53334;51.976;20.144;2023-02-11T14:24:51;25.90;45.20
36652;DHT22;53334;51.976;20.144;2023-02-11T14:27:34;25.90;44.70
36652;DHT22;53334;51.976;20.144;2023-02-11T14:35:55;25.90;44.60
36652;DHT22;53334;51.976;20.144;2023-02-11T14:38:37;25.90;44.90
36652;DHT22;53334;51.976;20.144;2023-02-11T14:41:15;25.90;45.40
36652;DHT22;53334;51.976;20.144;2023-02-11T14:43:51;25.90;45.70
36652;DHT22;53334;51.976;20.144;2023-02-11T14:46:26;25.90;45.80
36652;DHT22;53334;51.976;20.144;2023-02-11T14:49:01;25.90;45.70
36652;DHT22;53334;51.976;20.144;2023-02-11T14:51:37;25.90;45.60
36652;DHT22;53334;51.976;20.144;2023-02-11T14:54:13;25.90;45.50
36652;DHT22;53334;51.976;20.144;2023-02-11T14:56:58;25.90;45.80
36652;DHT22;53334;51.976;20.144;2023-02-11T14:59:37;25.90;45.90
36652;DHT22;53334;51.976;20.144;2023-02-11T15:02:18;26.00;45.80
36652;DHT22;53334;51.976;20.144;2023-02-11T15:04:52;26.00;45.70
36652;DHT22;53334;51.976;20.144;2023-02-11T15:07:27;26.00;46.10
36652;DHT22;53334;51.976;20.144;2023-02-11T15:10:00;26.00;47.10
36652;DHT22;53334;51.976;20.144;2023-02-11T15:12:34;26.00;47.00
36652;DHT22;53334;51.976;20.144;2023-02-11T15:15:10;26.00;46.90
36652;DHT22;53334;51.976;20.144;2023-02-11T15:17:45;26.00;46.90
36652;DHT22;53334;51.976;20.144;2023-02-11T15:20:19;26.00;46.90
36652;DHT22;53334;51.976;20.144;2023-02-11T15:22:56;26.00;47.10
36652;DHT22;53334;51.976;20.144;2023-02-11T15:25:30;26.00;47.00
36652;DHT22;53334;51.976;20.144;2023-02-11T15:28:09;26.00;47.10
36652;DHT22;53334;51.976;20.144;2023-02-11T15:30:54;26.00;46.90
36652;DHT22;53334;51.976;20.144;2023-02-11T15:33:28;26.00;47.00
36652;DHT22;53334;51.976;20.144;2023-02-11T15:36:03;26.00;47.00
36652;DHT22;53334;51.976;20.144;2023-02-11T15:38:38;26.00;47.10
36652;DHT22;53334;51.976;20.144;2023-02-11T15:41:31;26.00;46.50
36652;DHT22;53334;51.976;20.144;2023-02-11T15:44:24;26.00;46.40
36652;DHT22;53334;51.976;20.144;2023-02-11T15:46:57;26.00;46.40
36652;DHT22;53334;51.976;20.144;2023-02-11T15:49:31;26.00;46.80
36652;DHT22;53334;51.976;20.144;2023-02-11T15:52:04;26.00;46.70
36652;DHT22;53334;51.976;20.144;2023-02-11T15:54:41;26.00;46.70
36652;DHT22;53334;51.976;20.144;2023-02-11T15:57:18;26.00;46.70
36652;DHT22;53334;51.976;20.144;2023-02-11T15:59:52;26.00;46.70
36652;DHT22;53334;51.976;20.144;2023-02-11T16:02:26;26.00;46.70
36652;DHT22;53334;51.976;20.144;2023-02-11T16:05:02;26.00;46.70
36652;DHT22;53334;51.976;20.144;2023-02-11T16:07:37;26.00;46.60
36652;DHT22;53334;51.976;20.144;2023-02-11T16:10:23;26.00;46.50
36652;DHT22;53334;51.976;20.144;2023-02-11T16:13:02;26.00;46.20
36652;DHT22;53334;51.976;20.144;2023-02-11T16:15:48;26.00;46.00
36652;DHT22;53334;51.976;20.144;2023-02-11T16:18:30;26.00;45.90
36652;DHT22;53334;51.976;20.144;2023-02-11T16:21:11;26.00;46.00
36652;DHT22;53334;51.976;20.144;2023-02-11T16:23:50;26.00;46.40
36652;DHT22;53334;51.976;20.144;2023-02-11T16:26:26;26.00;46.70
36652;DHT22;53334;51.976;20.144;2023-02-11T16:29:05;26.00;47.00
36652;DHT22;53334;51.976;20.144;2023-02-11T16:31:47;26.00;47.40
36652;DHT22;53334;51.976;20.144;2023-02-11T16:34:21;26.00;47.30
36652;DHT22;53334;51.976;20.144;2023-02-11T16:36:55;26.00;47.30
36652;DHT22;53334;51.976;20.144;2023-02-11T16:39:28;26.00;47.50